Time;durP1;ratioP1;P1;durP2;ratioP2;P2;SDS_P1;SDS_P2;PMS_P1;PMS_P2;Temp;Humidity;BMP_temperature;BMP_pressure;BME280_temperature;BME280_humidity;BME280_pressure;Samples;Min_cycle;Max_cycle;Signal;HPM_P1;HPM_P2
2022/08/17 00:00:04;;;;;;;;;;;;;;;19.82;53.05;96296.87;30001;983;1877;-67
2022/08/17 00:00:36;;;;;;;;;;;;;;;19.80;53.34;96288.19;30001;982;1859;-67
2022/08/17 00:01:12;;;;;;;;;;;;;;;19.80;53.34;96292.91;30001;982;1872;-56
2022/08/17 00:01:43;;;;;;;;;;;;;;;19.79;53.72;96291.31;30001;982;1881;-56
2022/08/17 00:02:14;;;;;;;;;;;;;;;19.79;53.46;96296.81;30001;982;1877;-69
2022/08/17 00:02:59;;;;;;;;;;;;;;;19.78;53.66;96295.22;30001;982;1881;-68
2022/08/17 00:03:38;;;;;;;;;;;;;;;19.78;53.81;96296.00;30001;983;1854;-68
2022/08/17 00:04:09;;;;;;;;;;;;;;;19.78;53.56;96292.47;30001;983;1876;-68
2022/08/17 00:04:40;;;;;;;;;;;;;;;19.76;53.49;96292.81;30001;983;1876;-67
2022/08/17 00:05:13;;;;;;;;;;;;;;;19.77;53.80;96288.13;30001;976;1888;-67
2022/08/17 00:05:46;;;;;;;;;;;;;;;19.77;53.74;96288.91;30001;983;1846;-68
2022/08/17 00:06:26;;;;;;;;;;;;;;;19.78;53.39;96290.50;30001;983;1881;-68
2022/08/17 00:06:56;;;;;;;;;;;;;;;19.78;53.74;96289.72;30001;983;1877;-66
2022/08/17 00:07:28;;;;;;;;;;;;;;;19.79;53.87;96294.84;30001;983;1881;-67
2022/08/17 00:07:59;;;;;;;;;;;;;;;19.79;53.63;96289.34;30001;982;1877;-68
2022/08/17 00:08:34;;;;;;;;;;;;;;;19.78;53.55;96285.00;30001;982;1882;-67
2022/08/17 00:09:05;;;;;;;;;;;;;;;19.81;53.53;96288.97;30001;982;1855;-67
2022/08/17 00:09:36;;;;;;;;;;;;;;;19.81;53.77;96287.03;30001;982;1855;-66
2022/08/17 00:10:11;;;;;;;;;;;;;;;19.80;53.50;96288.19;30001;982;1877;-67
2022/08/17 00:10:44;;;;;;;;;;;;;;;19.81;53.56;96288.97;30001;982;1881;-67
2022/08/17 00:11:16;;;;;;;;;;;;;;;19.82;53.73;96288.63;30001;983;1876;-68
2022/08/17 00:11:49;;;;;;;;;;;;;;;19.81;53.79;96289.78;30001;983;1880;-68
2022/08/17 00:12:21;;;;;;;;;;;;;;;19.80;53.42;96287.38;30001;983;1876;-66
2022/08/17 00:12:52;;;;;;;;;;;;;;;19.79;53.87;96281.09;30001;983;1881;-68
2022/08/17 00:13:28;;;;;;;;;;;;;;;19.80;53.81;96285.44;30001;983;1876;-68
2022/08/17 00:14:10;;;;;;;;;;;;;;;19.80;53.83;96287.38;30001;983;1881;-66
2022/08/17 00:14:44;;;;;;;;;;;;;;;19.79;53.68;96286.59;30001;983;1855;-69
2022/08/17 00:15:15;;;;;;;;;;;;;;;19.79;53.71;96286.59;30001;982;1877;-68
2022/08/17 00:15:46;;;;;;;;;;;;;;;19.78;53.72;96289.72;30001;982;1877;-68
2022/08/17 00:16:19;;;;;;;;;;;;;;;19.77;53.78;96277.09;30001;982;1859;-67
2022/08/17 00:16:53;;;;;;;;;;;;;;;19.76;53.60;96281.81;30001;982;1872;-68
2022/08/17 00:17:24;;;;;;;;;;;;;;;19.75;53.83;96288.50;30001;982;1881;-69
2022/08/17 00:17:55;;;;;;;;;;;;;;;19.74;53.62;96289.69;30001;982;1855;-68
2022/08/17 00:18:27;;;;;;;;;;;;;;;19.73;53.81;96290.84;30001;982;1877;-68
2022/08/17 00:18:59;;;;;;;;;;;;;;;19.71;53.77;96280.19;30001;983;1876;-69
2022/08/17 00:19:31;;;;;;;;;;;;;;;19.71;53.67;96282.16;30001;983;1881;-67
2022/08/17 00:20:03;;;;;;;;;;;;;;;19.71;54.00;96284.91;30001;983;1876;-68
2022/08/17 00:20:34;;;;;;;;;;;;;;;19.70;53.70;96286.06;30001;983;1881;-69
2022/08/17 00:21:06;;;;;;;;;;;;;;;19.69;54.05;96287.22;30001;983;1876;-69
2022/08/17 00:21:39;;;;;;;;;;;;;;;19.70;54.00;96283.31;30001;986;1859;-69
2022/08/17 00:22:10;;;;;;;;;;;;;;;19.68;53.86;96280.91;30001;983;1850;-67
2022/08/17 00:22:41;;;;;;;;;;;;;;;19.68;53.74;96280.13;30001;983;1881;-69
2022/08/17 00:23:13;;;;;;;;;;;;;;;19.68;54.20;96274.63;30001;982;1877;-67
2022/08/17 00:23:45;;;;;;;;;;;;;;;19.69;53.85;96281.72;30001;982;1881;-67
2022/08/17 00:24:16;;;;;;;;;;;;;;;19.69;54.19;96284.47;30001;982;1877;-67
2022/08/17 00:24:47;;;;;;;;;;;;;;;19.68;54.10;96275.41;30001;982;1881;-69
2022/08/17 00:25:18;;;;;;;;;;;;;;;19.69;54.05;96276.22;30001;982;1877;-69
2022/08/17 00:25:50;;;;;;;;;;;;;;;19.68;53.87;96280.91;30001;982;1881;-69
2022/08/17 00:26:22;;;;;;;;;;;;;;;19.70;53.84;96283.31;30001;983;1876;-68
2022/08/17 00:26:53;;;;;;;;;;;;;;;19.70;53.78;96277.81;30001;983;1880;-66
2022/08/17 00:27:24;;;;;;;;;;;;;;;19.70;53.78;96278.59;30001;983;1854;-67
2022/08/17 00:27:56;;;;;;;;;;;;;;;19.71;53.84;96279.41;30001;983;1876;-68
2022/08/17 00:28:28;;;;;;;;;;;;;;;19.71;53.82;96282.16;30001;983;1876;-67
2022/08/17 00:28:59;;;;;;;;;;;;;;;19.71;54.14;96280.19;30001;957;1810;-68
2022/08/17 00:29:30;;;;;;;;;;;;;;;19.68;53.78;96271.88;30001;983;1876;-69
2022/08/17 00:30:01;;;;;;;;;;;;;;;19.68;53.88;96274.63;30001;983;1881;-68
2022/08/17 00:30:33;;;;;;;;;;;;;;;19.67;54.17;96278.53;30001;974;1894;-68
2022/08/17 00:31:05;;;;;;;;;;;;;;;19.67;54.53;96275.78;30001;982;1881;-70
2022/08/17 00:31:37;;;;;;;;;;;;;;;19.67;54.35;96273.03;30001;982;1877;-68
2022/08/17 00:32:07;;;;;;;;;;;;;;;19.66;54.46;96274.19;30001;982;1881;-68
2022/08/17 00:32:44;;;;;;;;;;;;;;;19.66;54.17;96274.19;30001;982;1855;-68
2022/08/17 00:33:16;;;;;;;;;;;;;;;19.64;54.23;96274.56;30001;983;1876;-68
2022/08/17 00:33:48;;;;;;;;;;;;;;;19.64;54.47;96282.00;30001;983;1876;-68
2022/08/17 00:34:18;;;;;;;;;;;;;;;19.63;54.56;96277.66;30001;983;1880;-69
2022/08/17 00:34:49;;;;;;;;;;;;;;;19.62;54.18;96271.38;30001;983;1876;-67
2022/08/17 00:35:22;;;;;;;;;;;;;;;19.60;54.57;96272.91;30001;983;1881;-67
2022/08/17 00:35:54;;;;;;;;;;;;;;;19.59;54.36;96274.84;30001;983;1876;-69
2022/08/17 00:36:26;;;;;;;;;;;;;;;19.59;54.96;96265.81;30001;983;1859;-67
2022/08/17 00:36:58;;;;;;;;;;;;;;;19.59;54.88;96274.06;30001;983;1872;-68
2022/08/17 00:37:29;;;;;;;;;;;;;;;19.57;54.80;96268.91;30001;983;1859;-69
2022/08/17 00:38:00;;;;;;;;;;;;;;;19.56;54.62;96272.84;30001;982;1872;-68
2022/08/17 00:38:31;;;;;;;;;;;;;;;19.56;54.95;96277.53;30001;982;1881;-68
2022/08/17 00:39:02;;;;;;;;;;;;;;;19.56;54.84;96278.34;30001;982;1877;-68
2022/08/17 00:39:33;;;;;;;;;;;;;;;19.55;54.71;96278.69;30001;982;1881;-67
2022/08/17 00:40:05;;;;;;;;;;;;;;;19.54;54.72;96277.09;30001;982;1855;-68
2022/08/17 00:41:02;;;;;;;;;;;;;;;19.53;55.17;96275.50;30001;983;1876;-68
2022/08/17 00:41:34;;;;;;;;;;;;;;;19.53;55.05;96265.31;30001;983;1850;-68
2022/08/17 00:42:14;;;;;;;;;;;;;;;19.54;54.78;96274.34;30001;983;1876;-68
2022/08/17 00:42:47;;;;;;;;;;;;;;;19.53;54.78;96267.25;30001;983;1876;-68
2022/08/17 00:43:20;;;;;;;;;;;;;;;19.52;54.90;96271.16;30001;983;1881;-56
2022/08/17 00:43:56;;;;;;;;;;;;;;;19.51;54.81;96275.88;30001;983;1876;-67
2022/08/17 00:44:26;;;;;;;;;;;;;;;19.50;54.88;96281.72;30001;983;1805;-66
2022/08/17 00:44:57;;;;;;;;;;;;;;;19.48;55.10;96273.81;30001;983;1877;-67
2022/08/17 00:45:28;;;;;;;;;;;;;;;19.48;54.96;96276.56;30001;982;1881;-68
2022/08/17 00:46:00;;;;;;;;;;;;;;;19.47;55.38;96268.69;30001;982;1877;-67
2022/08/17 00:46:34;;;;;;;;;;;;;;;19.46;55.66;96272.59;30001;982;1859;-68
2022/08/17 00:47:05;;;;;;;;;;;;;;;19.46;55.26;96275.34;30001;982;1873;-68
2022/08/17 00:47:36;;;;;;;;;;;;;;;19.44;55.35;96281.22;30001;982;1881;-68
2022/08/17 00:48:07;;;;;;;;;;;;;;;19.43;55.78;96279.63;30001;983;1876;-67
2022/08/17 00:48:38;;;;;;;;;;;;;;;19.41;55.77;96276.44;30001;983;1880;-67
2022/08/17 00:49:10;;;;;;;;;;;;;;;19.42;55.75;96276.06;30001;983;1876;-68
2022/08/17 00:49:41;;;;;;;;;;;;;;;19.41;55.75;96279.19;30001;983;1881;-68
2022/08/17 00:50:14;;;;;;;;;;;;;;;19.41;56.12;96282.72;30001;983;1876;-67
2022/08/17 00:51:03;;;;;;;;;;;;;;;19.39;55.80;96279.59;30001;983;1880;-68
2022/08/17 00:51:40;;;;;;;;;;;;;;;19.39;55.83;96285.09;30001;983;1846;-68
2022/08/17 00:52:14;;;;;;;;;;;;;;;19.37;55.86;96272.84;30001;983;1876;-69
2022/08/17 00:52:50;;;;;;;;;;;;;;;19.38;55.92;96272.50;30001;983;1876;-67
2022/08/17 00:53:21;;;;;;;;;;;;;;;19.37;55.99;96276.41;30001;982;1881;-68
2022/08/17 00:53:56;;;;;;;;;;;;;;;19.38;56.04;96274.44;30001;982;1877;-68
2022/08/17 00:54:30;;;;;;;;;;;;;;;19.38;55.97;96272.50;30001;982;1881;-69
2022/08/17 00:55:01;;;;;;;;;;;;;;;19.37;55.98;96270.09;30001;982;1877;-69
2022/08/17 00:55:33;;;;;;;;;;;;;;;19.39;56.06;96274.06;30001;983;1880;-68
2022/08/17 00:56:07;;;;;;;;;;;;;;;19.40;55.77;96267.38;30001;983;1876;-57
2022/08/17 00:56:43;;;;;;;;;;;;;;;19.40;55.90;96272.13;30001;983;1859;-67
2022/08/17 00:57:17;;;;;;;;;;;;;;;19.39;55.82;96276.84;30001;983;1850;-67
2022/08/17 00:57:50;;;;;;;;;;;;;;;19.37;55.90;96270.91;30001;983;1881;-55
2022/08/17 00:58:22;;;;;;;;;;;;;;;19.37;55.64;96276.41;30001;983;1876;-68
2022/08/17 00:58:53;;;;;;;;;;;;;;;19.37;55.57;96275.59;30001;983;1859;-67
2022/08/17 00:59:29;;;;;;;;;;;;;;;19.36;55.90;96274.81;30001;983;1872;-67
2022/08/17 01:00:20;;;;;;;;;;;;;;;19.37;55.92;96276.41;30001;983;1881;-67
2022/08/17 01:00:51;;;;;;;;;;;;;;;19.36;55.69;96274.81;30001;982;1877;-67
2022/08/17 01:01:22;;;;;;;;;;;;;;;19.35;55.95;96267.72;30001;982;1881;-56
2022/08/17 01:01:53;;;;;;;;;;;;;;;19.35;55.81;96270.47;30001;982;1877;-67
2022/08/17 01:02:24;;;;;;;;;;;;;;;19.36;56.05;96274.81;30001;982;1860;-67
2022/08/17 01:03:00;;;;;;;;;;;;;;;19.38;55.70;96278.00;30001;982;1872;-68
2022/08/17 01:03:32;;;;;;;;;;;;;;;19.38;55.68;96271.69;30001;983;1880;-67
2022/08/17 01:04:03;;;;;;;;;;;;;;;19.38;55.69;96272.50;30001;983;1876;-66
2022/08/17 01:04:35;;;;;;;;;;;;;;;19.39;55.97;96278.78;30001;983;1858;-68
2022/08/17 01:05:06;;;;;;;;;;;;;;;19.38;55.61;96275.25;30001;983;1872;-67
2022/08/17 01:05:38;;;;;;;;;;;;;;;19.35;55.86;96264.97;30001;983;1881;-67
2022/08/17 01:06:09;;;;;;;;;;;;;;;19.37;55.96;96270.09;30001;983;1876;-68
2022/08/17 01:06:41;;;;;;;;;;;;;;;19.35;55.77;96267.72;30001;983;1881;-67
2022/08/17 01:07:13;;;;;;;;;;;;;;;19.34;56.04;96268.06;30001;982;1877;-55
2022/08/17 01:07:45;;;;;;;;;;;;;;;19.32;56.00;96271.19;30001;982;1859;-67
2022/08/17 01:08:18;;;;;;;;;;;;;;;19.31;55.70;96266.84;30001;982;1872;-66
2022/08/17 01:08:50;;;;;;;;;;;;;;;19.30;55.83;96262.50;30001;982;1881;-67
2022/08/17 01:09:21;;;;;;;;;;;;;;;19.31;56.09;96271.56;30001;982;1877;-68
2022/08/17 01:09:53;;;;;;;;;;;;;;;19.31;55.84;96269.59;30001;982;1881;-70
2022/08/17 01:10:32;;;;;;;;;;;;;;;19.33;55.95;96264.53;30001;982;1877;-69
2022/08/17 01:11:04;;;;;;;;;;;;;;;19.32;56.16;96265.69;30001;983;1880;-69
2022/08/17 01:11:36;;;;;;;;;;;;;;;19.33;55.82;96267.28;30001;983;1876;-70
2022/08/17 01:12:07;;;;;;;;;;;;;;;19.33;56.18;96260.97;30001;983;1881;-69
2022/08/17 01:12:38;;;;;;;;;;;;;;;19.34;55.86;96266.13;30001;983;1838;-68
2022/08/17 01:13:10;;;;;;;;;;;;;;;19.35;56.17;96266.91;30001;983;1859;-69
2022/08/17 01:13:42;;;;;;;;;;;;;;;19.36;56.22;96257.50;30001;983;1872;-68
2022/08/17 01:14:13;;;;;;;;;;;;;;;19.37;56.12;96259.09;30001;983;1881;-67
2022/08/17 01:14:44;;;;;;;;;;;;;;;19.39;55.85;96263.06;30001;982;1877;-67
2022/08/17 01:15:16;;;;;;;;;;;;;;;19.39;56.06;96257.56;30001;985;1881;-69
2022/08/17 01:15:52;;;;;;;;;;;;;;;19.39;55.83;96267.78;30001;982;1877;-68
2022/08/17 01:16:30;;;;;;;;;;;;;;;19.36;56.01;96266.56;30001;982;1881;-67
2022/08/17 01:17:01;;;;;;;;;;;;;;;19.36;56.09;96269.31;30001;977;1890;-68
2022/08/17 01:17:32;;;;;;;;;;;;;;;19.36;55.98;96269.31;30001;983;1880;-68
2022/08/17 01:18:06;;;;;;;;;;;;;;;19.36;55.99;96269.31;30001;983;1876;-69
2022/08/17 01:18:38;;;;;;;;;;;;;;;19.35;55.98;96270.47;30001;983;1859;-69
2022/08/17 01:19:13;;;;;;;;;;;;;;;19.34;55.79;96266.13;30001;983;1872;-67
2022/08/17 01:19:44;;;;;;;;;;;;;;;19.34;55.87;96266.13;30001;983;1881;-68
2022/08/17 01:20:15;;;;;;;;;;;;;;;19.35;56.11;96266.91;30001;983;1876;-69
2022/08/17 01:20:48;;;;;;;;;;;;;;;19.33;56.16;96264.53;30001;983;1881;-67
2022/08/17 01:21:35;;;;;;;;;;;;;;;19.33;56.23;96264.53;30001;986;1855;-70
2022/08/17 01:22:16;;;;;;;;;;;;;;;19.33;56.22;96264.53;30001;983;1876;-67
2022/08/17 01:22:47;;;;;;;;;;;;;;;19.34;56.02;96266.13;30001;982;1877;-69
2022/08/17 01:23:20;;;;;;;;;;;;;;;19.32;56.21;96265.69;30001;982;1881;-69
2022/08/17 01:23:50;;;;;;;;;;;;;;;19.34;55.95;96265.31;30001;986;1877;-68
2022/08/17 01:24:22;;;;;;;;;;;;;;;19.33;56.21;96259.03;30001;982;1881;-69
2022/08/17 01:24:56;;;;;;;;;;;;;;;19.35;56.03;96266.91;30001;983;1876;-67
2022/08/17 01:25:28;;;;;;;;;;;;;;;19.34;56.06;96260.63;30001;983;1880;-67
2022/08/17 01:26:00;;;;;;;;;;;;;;;19.35;56.02;96256.72;30001;970;1755;-56
2022/08/17 01:26:32;;;;;;;;;;;;;;;19.35;56.20;96262.22;30001;983;1876;-68
2022/08/17 01:27:04;;;;;;;;;;;;;;;19.38;55.96;96267.00;30001;983;1876;-69
2022/08/17 01:27:35;;;;;;;;;;;;;;;19.38;56.05;96261.47;30001;983;1881;-68
2022/08/17 01:28:06;;;;;;;;;;;;;;;19.39;56.04;96265.81;30001;983;1854;-70
2022/08/17 01:28:38;;;;;;;;;;;;;;;19.37;55.94;96262.66;30001;983;1876;-70
2022/08/17 01:29:12;;;;;;;;;;;;;;;19.39;55.98;96265.81;30001;983;1876;-67
2022/08/17 01:29:44;;;;;;;;;;;;;;;19.37;56.08;96273.66;30001;983;1881;-69
2022/08/17 01:30:16;;;;;;;;;;;;;;;19.39;55.98;96262.28;30001;982;1877;-70
2022/08/17 01:30:47;;;;;;;;;;;;;;;19.38;56.05;96269.75;30001;982;1859;-68
2022/08/17 01:31:20;;;;;;;;;;;;;;;19.36;55.87;96274.00;30001;982;1872;-68
2022/08/17 01:31:54;;;;;;;;;;;;;;;19.35;55.95;96262.22;30001;982;1881;-68
2022/08/17 01:32:26;;;;;;;;;;;;;;;19.33;56.24;96270.03;30001;983;1876;-68
2022/08/17 01:32:57;;;;;;;;;;;;;;;19.32;56.05;96262.94;30001;983;1880;-67
2022/08/17 01:33:29;;;;;;;;;;;;;;;19.31;56.03;96266.84;30001;983;1876;-68
2022/08/17 01:34:01;;;;;;;;;;;;;;;19.30;56.27;96265.25;30001;983;1859;-68
2022/08/17 01:34:33;;;;;;;;;;;;;;;19.30;56.24;96268.00;30001;983;1872;-68
2022/08/17 01:35:05;;;;;;;;;;;;;;;19.28;56.60;96262.06;30001;983;1881;-70
2022/08/17 01:35:37;;;;;;;;;;;;;;;19.28;56.33;96264.81;30001;983;1876;-70
2022/08/17 01:36:08;;;;;;;;;;;;;;;19.27;56.61;96267.94;30001;983;1881;-68
2022/08/17 01:36:40;;;;;;;;;;;;;;;19.26;56.22;96269.88;30001;983;1876;-71
2022/08/17 01:37:14;;;;;;;;;;;;;;;19.25;56.46;96273.78;30001;983;1873;-69
2022/08/17 01:37:45;;;;;;;;;;;;;;;19.26;56.32;96264.38;30001;982;1877;-70
2022/08/17 01:38:17;;;;;;;;;;;;;;;19.25;56.34;96268.28;30001;982;1881;-68
2022/08/17 01:38:48;;;;;;;;;;;;;;;19.25;56.47;96270.25;30001;982;1877;-68
2022/08/17 01:39:30;;;;;;;;;;;;;;;19.24;56.47;96266.72;30001;982;1859;-68
2022/08/17 01:40:04;;;;;;;;;;;;;;;19.23;56.12;96265.13;30001;983;1872;-70
2022/08/17 01:40:37;;;;;;;;;;;;;;;19.22;56.41;96263.53;30001;983;1880;-70
2022/08/17 01:41:11;;;;;;;;;;;;;;;19.24;56.32;96265.91;30001;983;1876;-69
2022/08/17 01:41:44;;;;;;;;;;;;;;;19.25;56.19;96262.00;30001;983;1881;-69
2022/08/17 01:42:22;;;;;;;;;;;;;;;19.24;56.07;96266.72;30001;983;1854;-68
2022/08/17 01:42:59;;;;;;;;;;;;;;;19.25;56.09;96268.28;30001;983;1854;-68
2022/08/17 01:43:33;;;;;;;;;;;;;;;19.24;56.09;96272.22;30001;983;1876;-68
2022/08/17 01:44:06;;;;;;;;;;;;;;;19.23;56.30;96273.37;30001;983;1859;-68
2022/08/17 01:44:40;;;;;;;;;;;;;;;19.23;56.08;96276.13;30001;983;1872;-68
2022/08/17 01:45:15;;;;;;;;;;;;;;;19.22;56.23;96273.72;30001;982;1881;-69
2022/08/17 01:45:48;;;;;;;;;;;;;;;19.20;56.27;96271.34;30001;982;1877;-67
2022/08/17 01:46:20;;;;;;;;;;;;;;;19.21;56.25;96280.38;30001;982;1859;-70
2022/08/17 01:46:51;;;;;;;;;;;;;;;19.19;56.26;96275.25;30001;982;1873;-67
2022/08/17 01:47:23;;;;;;;;;;;;;;;19.19;56.63;96278.00;30001;982;1881;-70
2022/08/17 01:47:54;;;;;;;;;;;;;;;19.19;56.34;96275.25;30001;982;1854;-70
2022/08/17 01:48:29;;;;;;;;;;;;;;;19.18;56.43;96272.84;30001;983;1876;-68
2022/08/17 01:49:00;;;;;;;;;;;;;;;19.18;56.43;96279.16;30001;983;1876;-69
2022/08/17 01:49:31;;;;;;;;;;;;;;;19.17;56.42;96271.25;30001;983;1881;-69
2022/08/17 01:50:14;;;;;;;;;;;;;;;19.17;56.47;96274.81;30001;983;1876;-69
2022/08/17 01:50:48;;;;;;;;;;;;;;;19.17;56.35;96276.75;30001;983;1881;-69
2022/08/17 01:51:20;;;;;;;;;;;;;;;19.16;56.60;96270.47;30001;983;1855;-70
2022/08/17 01:51:51;;;;;;;;;;;;;;;19.15;56.53;96271.63;30001;965;1894;-57
2022/08/17 01:52:22;;;;;;;;;;;;;;;19.15;56.52;96271.63;30001;982;1877;-68
2022/08/17 01:52:56;;;;;;;;;;;;;;;19.13;56.48;96267.66;30001;982;1881;-70
2022/08/17 01:53:31;;;;;;;;;;;;;;;19.13;56.46;96270.41;30001;982;1877;-70
2022/08/17 01:54:07;;;;;;;;;;;;;;;19.11;56.62;96269.97;30001;982;1881;-70
2022/08/17 01:54:40;;;;;;;;;;;;;;;19.09;56.91;96264.81;30001;982;1855;-70
2022/08/17 01:55:12;;;;;;;;;;;;;;;19.10;56.71;96269.16;30001;983;1876;-70
2022/08/17 01:55:46;;;;;;;;;;;;;;;19.09;57.07;96276.63;30001;983;1876;-69
2022/08/17 01:56:19;;;;;;;;;;;;;;;19.07;57.06;96272.63;30001;983;1881;-70
2022/08/17 01:56:50;;;;;;;;;;;;;;;19.08;56.82;96268.72;30001;983;1876;-68
2022/08/17 01:57:21;;;;;;;;;;;;;;;19.07;56.99;96272.63;30001;983;1881;-67
2022/08/17 01:57:52;;;;;;;;;;;;;;;19.05;56.77;96275.78;30001;983;1876;-71
2022/08/17 01:58:23;;;;;;;;;;;;;;;19.04;57.01;96273.37;30001;983;1881;-70
2022/08/17 01:58:54;;;;;;;;;;;;;;;19.04;56.83;96262.38;30001;983;1877;-71
2022/08/17 01:59:25;;;;;;;;;;;;;;;19.04;57.10;96273.37;30001;982;1859;-70
2022/08/17 01:59:56;;;;;;;;;;;;;;;19.02;56.87;96273.75;30001;982;1872;-68
2022/08/17 02:00:28;;;;;;;;;;;;;;;19.01;56.81;96274.13;30001;982;1881;-71
2022/08/17 02:00:59;;;;;;;;;;;;;;;19.00;56.82;96278.03;30001;982;1877;-69
2022/08/17 02:01:31;;;;;;;;;;;;;;;18.99;57.20;96270.94;30001;982;1881;-68
2022/08/17 02:02:03;;;;;;;;;;;;;;;19.00;56.98;96280.78;30001;982;1877;-69
2022/08/17 02:02:34;;;;;;;;;;;;;;;18.99;57.35;96271.72;30001;963;1900;-68
2022/08/17 02:03:09;;;;;;;;;;;;;;;18.99;57.58;96276.44;30001;983;1876;-68
2022/08/17 02:03:41;;;;;;;;;;;;;;;18.98;57.25;96272.09;30001;983;1859;-70
2022/08/17 02:04:12;;;;;;;;;;;;;;;18.97;57.02;96267.75;30001;983;1872;-68
2022/08/17 02:04:43;;;;;;;;;;;;;;;18.96;57.06;96274.41;30001;983;1881;-70
2022/08/17 02:05:14;;;;;;;;;;;;;;;18.96;57.15;96277.16;30001;983;1876;-68
2022/08/17 02:05:46;;;;;;;;;;;;;;;18.94;57.49;96273.97;30001;983;1881;-69
2022/08/17 02:06:18;;;;;;;;;;;;;;;18.94;57.13;96274.75;30001;983;1876;-68
2022/08/17 02:06:49;;;;;;;;;;;;;;;18.92;57.21;96270.78;30001;982;1881;-71
2022/08/17 02:07:19;;;;;;;;;;;;;;;18.92;57.40;96276.28;30001;982;1877;-69
2022/08/17 02:07:52;;;;;;;;;;;;;;;18.90;57.52;96270.34;30001;982;1881;-68
2022/08/17 02:08:23;;;;;;;;;;;;;;;18.88;57.21;96270.69;30001;982;1877;-68
2022/08/17 02:08:54;;;;;;;;;;;;;;;18.88;57.35;96272.66;30001;982;1859;-70
2022/08/17 02:09:26;;;;;;;;;;;;;;;18.87;57.54;96280.09;30001;983;1872;-69
2022/08/17 02:09:57;;;;;;;;;;;;;;;18.88;57.72;96280.91;30001;983;1880;-70
2022/08/17 02:10:28;;;;;;;;;;;;;;;18.87;57.58;96282.06;30001;983;1876;-71
2022/08/17 02:10:59;;;;;;;;;;;;;;;18.87;57.73;96280.09;30001;983;1880;-68
2022/08/17 02:11:36;;;;;;;;;;;;;;;18.88;57.85;96278.16;30001;983;1876;-69
2022/08/17 02:12:07;;;;;;;;;;;;;;;18.88;57.49;96276.19;30001;983;1881;-68
2022/08/17 02:12:38;;;;;;;;;;;;;;;18.89;57.69;96285.25;30001;983;1876;-68
2022/08/17 02:13:11;;;;;;;;;;;;;;;18.90;57.41;96273.87;30001;983;1881;-68
2022/08/17 02:13:43;;;;;;;;;;;;;;;18.91;57.55;96271.94;30001;983;1876;-68
2022/08/17 02:14:14;;;;;;;;;;;;;;;18.90;57.69;96278.59;30001;983;1859;-68
2022/08/17 02:14:45;;;;;;;;;;;;;;;18.91;57.22;96275.47;30001;982;1872;-70
2022/08/17 02:15:16;;;;;;;;;;;;;;;18.91;57.27;96274.69;30001;982;1881;-69
2022/08/17 02:15:47;;;;;;;;;;;;;;;18.91;57.12;96280.19;30001;982;1877;-69
2022/08/17 02:16:17;;;;;;;;;;;;;;;18.91;57.31;96282.94;30001;982;1881;-70
2022/08/17 02:16:49;;;;;;;;;;;;;;;18.91;57.23;96280.19;30001;983;1876;-58
2022/08/17 02:17:19;;;;;;;;;;;;;;;18.92;57.15;96276.28;30001;983;1880;-70
2022/08/17 02:17:51;;;;;;;;;;;;;;;18.92;57.21;96281.78;30001;983;1876;-70
2022/08/17 02:18:22;;;;;;;;;;;;;;;18.93;57.36;96280.63;30001;983;1880;-69
2022/08/17 02:18:54;;;;;;;;;;;;;;;18.93;57.39;96280.63;30001;970;1897;-70
2022/08/17 02:19:26;;;;;;;;;;;;;;;18.93;57.11;96277.88;30001;983;1859;-68
2022/08/17 02:19:56;;;;;;;;;;;;;;;18.92;57.12;96276.28;30001;965;1802;-69
2022/08/17 02:20:31;;;;;;;;;;;;;;;18.93;57.45;96277.88;30001;983;1881;-68
2022/08/17 02:21:02;;;;;;;;;;;;;;;18.93;57.53;96277.88;30001;983;1877;-68
2022/08/17 02:21:37;;;;;;;;;;;;;;;18.93;57.37;96278.66;30001;985;1873;-69
2022/08/17 02:22:09;;;;;;;;;;;;;;;18.93;57.31;96283.38;30001;982;1881;-68
2022/08/17 02:22:41;;;;;;;;;;;;;;;18.94;57.37;96280.25;30001;982;1877;-70
2022/08/17 02:23:13;;;;;;;;;;;;;;;18.95;57.27;96281.06;30001;982;1881;-70
2022/08/17 02:23:47;;;;;;;;;;;;;;;18.94;57.29;96280.25;30001;982;1877;-68
2022/08/17 02:24:22;;;;;;;;;;;;;;;18.95;57.07;96281.06;30001;982;1881;-70
2022/08/17 02:24:53;;;;;;;;;;;;;;;18.95;57.43;96276.34;30001;983;1854;-68
2022/08/17 02:25:23;;;;;;;;;;;;;;;18.97;57.34;96278.75;30001;983;1876;-68
2022/08/17 02:25:56;;;;;;;;;;;;;;;18.97;57.21;96285.03;30001;983;1876;-68
2022/08/17 02:26:27;;;;;;;;;;;;;;;19.00;57.11;96283.53;30001;983;1881;-58
2022/08/17 02:26:58;;;;;;;;;;;;;;;18.99;57.26;96281.94;30001;983;1876;-69
2022/08/17 02:27:29;;;;;;;;;;;;;;;19.01;57.01;96276.88;30001;983;1881;-68
2022/08/17 02:28:00;;;;;;;;;;;;;;;19.01;57.16;96279.63;30001;983;1876;-57
2022/08/17 02:28:31;;;;;;;;;;;;;;;19.02;57.09;96275.69;30001;983;1881;-68
2022/08/17 02:29:02;;;;;;;;;;;;;;;19.02;57.03;96281.19;30001;983;1784;-57
2022/08/17 02:29:34;;;;;;;;;;;;;;;19.01;57.03;96280.41;30001;982;1881;-68
2022/08/17 02:30:06;;;;;;;;;;;;;;;19.01;57.03;96280.41;30001;982;1855;-69
2022/08/17 02:30:37;;;;;;;;;;;;;;;19.01;57.04;96276.88;30001;986;1877;-69
2022/08/17 02:31:10;;;;;;;;;;;;;;;19.00;57.03;96278.81;30001;982;1855;-57
2022/08/17 02:31:42;;;;;;;;;;;;;;;19.01;56.89;96279.63;30001;982;1877;-69
2022/08/17 02:32:17;;;;;;;;;;;;;;;19.01;56.93;96276.88;30001;983;1876;-69
2022/08/17 02:32:51;;;;;;;;;;;;;;;19.01;56.94;96285.91;30001;983;1790;-70
2022/08/17 02:33:21;;;;;;;;;;;;;;;19.01;56.99;96274.13;30001;983;1876;-69
2022/08/17 02:33:54;;;;;;;;;;;;;;;19.02;56.75;96275.69;30001;983;1881;-70
2022/08/17 02:34:25;;;;;;;;;;;;;;;19.02;57.08;96270.22;30001;983;1876;-70
2022/08/17 02:34:56;;;;;;;;;;;;;;;19.02;57.03;96275.69;30001;983;1881;-68
2022/08/17 02:35:27;;;;;;;;;;;;;;;19.01;57.07;96274.13;30001;983;1855;-69
2022/08/17 02:35:58;;;;;;;;;;;;;;;19.01;56.78;96274.91;30001;983;1876;-70
2022/08/17 02:36:29;;;;;;;;;;;;;;;19.01;57.11;96274.13;30001;983;1877;-69
2022/08/17 02:37:00;;;;;;;;;;;;;;;19.02;57.08;96282.00;30001;982;1881;-58
2022/08/17 02:37:32;;;;;;;;;;;;;;;19.02;56.92;96270.22;30001;982;1877;-68
2022/08/17 02:38:04;;;;;;;;;;;;;;;19.02;57.17;96282.00;30001;982;1881;-68
2022/08/17 02:38:35;;;;;;;;;;;;;;;19.01;56.87;96274.13;30001;982;1877;-69
2022/08/17 02:39:07;;;;;;;;;;;;;;;19.01;57.10;96276.88;30001;982;1881;-70
2022/08/17 02:39:38;;;;;;;;;;;;;;;19.02;57.23;96270.22;30001;983;1876;-68
2022/08/17 02:40:09;;;;;;;;;;;;;;;19.02;57.22;96282.00;30001;983;1880;-69
2022/08/17 02:40:42;;;;;;;;;;;;;;;19.02;57.09;96275.69;30001;983;1854;-68
2022/08/17 02:41:12;;;;;;;;;;;;;;;19.03;57.25;96277.28;30001;983;1876;-68
2022/08/17 02:41:43;;;;;;;;;;;;;;;19.03;56.90;96278.09;30001;983;1876;-70
2022/08/17 02:42:14;;;;;;;;;;;;;;;19.03;56.87;96278.09;30001;983;1859;-69
2022/08/17 02:42:45;;;;;;;;;;;;;;;19.03;57.01;96274.53;30001;983;1872;-57
2022/08/17 02:43:16;;;;;;;;;;;;;;;19.03;56.82;96272.59;30001;983;1881;-69
2022/08/17 02:43:47;;;;;;;;;;;;;;;19.05;56.80;96281.28;30001;982;1877;-70
2022/08/17 02:44:18;;;;;;;;;;;;;;;19.06;57.04;96273.78;30001;982;1859;-69
2022/08/17 02:44:49;;;;;;;;;;;;;;;19.07;56.58;96278.12;30001;982;1872;-69
2022/08/17 02:45:22;;;;;;;;;;;;;;;19.08;56.81;96279.72;30001;982;1881;-68
2022/08/17 02:45:53;;;;;;;;;;;;;;;19.09;56.78;96281.31;30001;982;1877;-68
2022/08/17 02:46:24;;;;;;;;;;;;;;;19.10;56.37;96277.41;30001;982;1881;-68
2022/08/17 02:46:55;;;;;;;;;;;;;;;19.11;56.43;96279.00;30001;982;1855;-68
2022/08/17 02:47:26;;;;;;;;;;;;;;;19.11;56.50;96275.47;30001;983;1876;-70
2022/08/17 02:47:57;;;;;;;;;;;;;;;19.12;56.34;96277.84;30001;983;1854;-69
2022/08/17 02:48:28;;;;;;;;;;;;;;;19.14;55.98;96270.03;30001;983;1876;-69
2022/08/17 02:48:59;;;;;;;;;;;;;;;19.14;56.26;96272.78;30001;983;1876;-57
2022/08/17 02:49:30;;;;;;;;;;;;;;;19.16;55.94;96273.22;30001;983;1881;-68
2022/08/17 02:50:01;;;;;;;;;;;;;;;19.14;56.16;96272.78;30001;983;1876;-68
2022/08/17 02:50:32;;;;;;;;;;;;;;;19.18;55.75;96276.41;30001;983;1881;-68
2022/08/17 02:51:03;;;;;;;;;;;;;;;19.19;55.74;96272.50;30001;983;1855;-69
2022/08/17 02:51:34;;;;;;;;;;;;;;;19.19;55.92;96269.75;30001;982;1876;-68
2022/08/17 02:52:06;;;;;;;;;;;;;;;19.18;56.02;96279.16;30001;982;1877;-68
2022/08/17 02:52:38;;;;;;;;;;;;;;;19.19;55.73;96268.94;30001;982;1881;-69
2022/08/17 02:53:09;;;;;;;;;;;;;;;19.19;56.07;96275.25;30001;982;1877;-70
2022/08/17 02:53:40;;;;;;;;;;;;;;;19.18;56.26;96276.41;30001;965;1876;-68